createdAt,value
2019-02-16T00:14:36.661Z,11.60
2019-02-16T00:21:59.212Z,12.37
2019-02-16T00:25:39.062Z,12.83
2019-02-16T00:28:24.283Z,12.87
2019-02-16T00:31:18.803Z,12.33
2019-02-16T01:19:22.958Z,14.00
2019-02-16T01:22:00.065Z,14.30
2019-02-16T01:25:37.038Z,15.07
2019-02-16T01:31:26.361Z,14.37
2019-02-16T01:34:12.839Z,14.40
2019-02-16T01:37:16.668Z,14.87
2019-02-16T01:40:18.259Z,14.20
2019-02-16T01:43:02.098Z,15.50
2019-02-16T01:46:53.068Z,14.60
2019-02-16T01:50:33.114Z,15.30
2019-02-16T01:57:32.091Z,16.10
2019-02-16T02:06:32.499Z,16.70
2019-02-16T02:16:51.702Z,15.37
2019-02-16T02:22:43.512Z,16.13
2019-02-16T02:29:36.111Z,16.50
2019-02-16T02:32:25.247Z,16.73
2019-02-16T02:35:08.006Z,16.70
2019-02-16T02:38:33.507Z,17.23
2019-02-16T02:41:15.587Z,17.00
2019-02-16T02:44:13.368Z,17.27
2019-02-16T02:47:01.817Z,17.80
2019-02-16T02:50:01.338Z,16.90
2019-02-16T02:52:46.710Z,17.97
2019-02-16T02:55:54.639Z,17.70
2019-02-16T02:59:12.116Z,17.83
2019-02-16T03:02:00.412Z,18.23
2019-02-16T03:08:16.286Z,18.23
2019-02-16T03:15:09.271Z,17.37
2019-02-16T03:18:07.299Z,20.00
2019-02-16T03:20:46.571Z,18.10
2019-02-16T03:23:28.878Z,17.77
2019-02-16T03:26:53.470Z,18.03
2019-02-16T03:29:47.126Z,17.93
2019-02-16T03:33:15.151Z,17.60
2019-02-16T03:36:48.225Z,17.63
2019-02-16T03:39:41.701Z,18.50
2019-02-16T03:42:18.547Z,18.13
2019-02-16T03:45:36.799Z,18.50
2019-02-16T03:48:27.499Z,18.73
2019-02-16T03:55:12.735Z,18.30
2019-02-16T03:58:01.104Z,18.40
2019-02-16T04:00:41.617Z,19.00
2019-02-16T04:07:14.310Z,18.77
2019-02-16T04:10:08.508Z,18.17
2019-02-16T04:12:56.125Z,19.53
2019-02-16T04:16:08.239Z,18.80
2019-02-16T04:22:00.711Z,18.83
2019-02-16T04:24:30.786Z,19.73
2019-02-16T04:27:03.771Z,19.97
2019-02-16T04:29:33.039Z,19.30
2019-02-16T04:32:02.535Z,20.07
2019-02-16T04:34:31.628Z,20.53
2019-02-16T04:37:02.882Z,18.87
2019-02-16T04:39:31.944Z,19.57
2019-02-16T04:42:00.905Z,19.27
2019-02-16T04:44:30.302Z,19.67
2019-02-16T04:46:59.499Z,19.33
2019-02-16T04:49:28.682Z,19.33
2019-02-16T04:51:58.052Z,20.00
2019-02-16T04:54:27.465Z,20.63
2019-02-16T04:56:56.738Z,20.03
2019-02-16T04:59:26.057Z,20.13
2019-02-16T05:01:55.329Z,19.00
2019-02-16T05:04:24.765Z,20.43
2019-02-16T05:06:54.207Z,20.83
2019-02-16T05:09:29.195Z,20.73
2019-02-16T05:11:58.593Z,20.73
2019-02-16T05:14:28.254Z,20.97
2019-02-16T05:16:57.321Z,20.50
2019-02-16T05:19:26.924Z,21.23
2019-02-16T05:21:56.199Z,20.40
2019-02-16T05:24:25.667Z,20.17
2019-02-16T05:26:54.787Z,20.20
2019-02-16T05:29:24.209Z,20.43
2019-02-16T05:31:54.325Z,20.83
2019-02-16T05:34:23.852Z,20.23
2019-02-16T05:36:53.252Z,18.83
2019-02-16T05:39:22.729Z,21.10
2019-02-16T05:41:55.268Z,20.27
2019-02-16T05:44:25.057Z,20.40
2019-02-16T05:46:54.555Z,21.90
2019-02-16T05:49:24.472Z,20.10
2019-02-16T05:51:53.796Z,20.40
2019-02-16T05:54:23.680Z,21.23
2019-02-16T05:56:53.063Z,20.27
2019-02-16T05:59:22.475Z,19.37
2019-02-16T06:01:54.287Z,18.73
2019-02-16T06:04:22.939Z,18.90
2019-02-16T06:06:52.199Z,19.23
2019-02-16T06:09:21.703Z,18.20
2019-02-16T06:11:53.856Z,20.30
2019-02-16T06:14:24.661Z,19.80
2019-02-16T06:16:53.939Z,20.03
2019-02-16T06:19:38.381Z,19.80
2019-02-16T06:22:05.480Z,20.27
2019-02-16T06:24:35.189Z,19.23
2019-02-16T06:27:04.829Z,19.93
2019-02-16T06:29:34.539Z,19.70
2019-02-16T06:32:03.969Z,20.00
2019-02-16T06:34:33.614Z,20.10
2019-02-16T06:37:20.242Z,20.67
2019-02-16T06:39:53.618Z,21.30
2019-02-16T06:42:23.734Z,20.03
2019-02-16T06:44:53.431Z,21.40
2019-02-16T06:47:23.816Z,21.73
2019-02-16T06:49:53.527Z,20.90
2019-02-16T06:52:25.434Z,21.33
2019-02-16T06:54:55.072Z,21.47
2019-02-16T06:57:33.551Z,20.67
2019-02-16T07:00:03.088Z,21.73
2019-02-16T07:02:33.422Z,20.50
2019-02-16T07:05:03.105Z,20.70
2019-02-16T07:07:38.446Z,21.80
2019-02-16T07:38:11.308Z,20.77
2019-02-16T07:40:40.655Z,21.53
2019-02-16T07:43:17.984Z,21.80
2019-02-16T07:46:03.013Z,21.80
2019-02-16T07:57:41.223Z,21.30
2019-02-16T08:00:40.322Z,21.13
2019-02-16T08:03:24.182Z,21.87
2019-02-16T08:06:08.150Z,22.13
2019-02-16T08:08:45.368Z,21.47
2019-02-16T08:11:40.646Z,20.97
2019-02-16T08:14:16.793Z,21.63
2019-02-16T08:17:14.035Z,21.27
2019-02-16T08:20:01.498Z,22.17
2019-02-16T08:22:49.101Z,21.63
2019-02-16T08:25:34.685Z,21.70
2019-02-16T08:28:20.995Z,20.90
2019-02-16T08:31:24.225Z,22.20
2019-02-16T08:33:59.146Z,23.27
2019-02-16T08:36:36.320Z,20.93
2019-02-16T08:39:11.093Z,21.33
2019-02-16T08:41:57.666Z,21.37
2019-02-16T08:44:39.291Z,20.60
2019-02-16T08:47:25.699Z,21.57
2019-02-16T08:50:04.437Z,21.80
2019-02-16T08:53:03.110Z,22.57
2019-02-16T08:55:41.847Z,22.97
2019-02-16T08:58:28.266Z,22.87
2019-02-16T09:01:22.876Z,22.40
2019-02-16T09:03:57.821Z,21.77
2019-02-16T09:06:51.642Z,21.67
2019-02-16T09:09:48.815Z,21.30
2019-02-16T09:12:37.100Z,21.80
2019-02-16T09:15:43.824Z,21.37
2019-02-16T09:18:24.648Z,21.27
2019-02-16T09:21:14.452Z,21.77
2019-02-16T09:23:59.368Z,21.73
2019-02-16T09:26:46.036Z,22.43
2019-02-16T09:29:29.339Z,22.17
2019-02-16T09:32:05.166Z,21.67
2019-02-16T09:35:10.928Z,23.07
2019-02-16T09:38:11.057Z,22.37
2019-02-16T09:41:08.721Z,23.37
2019-02-16T09:43:56.866Z,21.83
2019-02-16T09:46:43.958Z,20.83
2019-02-16T09:49:40.911Z,21.67
2019-02-16T09:52:35.555Z,22.20
2019-02-16T09:55:13.872Z,22.50
2019-02-16T09:58:01.712Z,22.53
2019-02-16T10:00:39.706Z,23.47
2019-02-16T10:03:27.951Z,21.40
2019-02-16T10:06:25.077Z,22.30
2019-02-16T10:09:06.919Z,22.83
2019-02-16T10:11:43.444Z,23.07
2019-02-16T10:14:26.702Z,22.23
2019-02-16T10:17:18.036Z,23.63
2019-02-16T10:20:02.734Z,23.70
2019-02-16T10:22:52.120Z,23.30
2019-02-16T10:25:40.359Z,23.23
2019-02-16T11:29:35.942Z,23.73
2019-02-16T11:32:26.593Z,25.40
2019-02-16T11:35:29.684Z,23.83
2019-02-16T11:38:03.711Z,23.53
2019-02-16T11:40:50.340Z,22.03
2019-02-16T11:43:25.899Z,23.47
2019-02-16T11:46:02.848Z,23.43
2019-02-16T11:48:46.717Z,24.03
2019-02-16T11:51:49.369Z,24.57
2019-02-16T11:54:45.625Z,23.63
2019-02-16T11:57:30.148Z,23.53
2019-02-16T12:00:21.974Z,24.27
2019-02-16T12:03:25.429Z,23.27
2019-02-16T12:06:15.238Z,24.23
2019-02-16T12:09:12.340Z,24.30
2019-02-16T12:12:07.706Z,24.80
2019-02-16T12:14:58.685Z,23.40
2019-02-16T12:17:45.803Z,23.50
2019-02-16T12:20:33.647Z,23.63
2019-02-16T12:23:24.901Z,22.70
2019-02-16T12:26:11.306Z,25.00
2019-02-16T12:29:05.345Z,26.00
2019-02-16T12:32:03.310Z,23.30
2019-02-16T12:35:29.085Z,24.73
2019-02-16T12:38:23.838Z,24.70
2019-02-16T12:41:05.489Z,24.17
2019-02-16T12:43:42.916Z,22.80
2019-02-16T12:46:36.455Z,23.57
2019-02-16T12:49:27.699Z,24.97
2019-02-16T12:52:22.025Z,22.87
2019-02-16T12:55:03.985Z,23.43
2019-02-16T12:57:40.077Z,25.00
2019-02-16T13:00:27.085Z,25.03
2019-02-16T13:03:05.397Z,24.33
2019-02-16T13:06:02.355Z,24.40
2019-02-16T13:08:42.757Z,23.43
2019-02-16T13:11:23.338Z,23.90
2019-02-16T13:14:13.902Z,24.80
2019-02-16T13:16:58.845Z,25.00
2019-02-16T13:19:49.779Z,23.93
2019-02-16T13:22:36.312Z,24.33
2019-02-16T13:25:23.888Z,24.47
2019-02-16T13:28:00.717Z,24.87
2019-02-16T13:30:48.188Z,23.87
2019-02-16T13:33:36.674Z,24.40
2019-02-16T13:36:43.896Z,23.00
2019-02-16T13:39:32.524Z,23.10
2019-02-16T13:42:23.042Z,21.70
2019-02-16T13:44:57.052Z,20.43
2019-02-16T13:47:28.775Z,21.47
2019-02-16T13:50:16.321Z,21.57
2019-02-16T13:52:54.941Z,21.23
2019-02-16T13:55:43.378Z,22.43
2019-02-16T13:58:30.574Z,21.00
2019-02-16T14:01:13.560Z,21.47
2019-02-16T14:04:10.219Z,21.63
2019-02-16T14:06:57.974Z,20.90
2019-02-16T14:09:48.706Z,21.33
2019-02-16T14:12:46.996Z,22.03
2019-02-16T14:15:34.575Z,21.37
2019-02-16T14:18:03.151Z,21.03
2019-02-16T14:20:34.604Z,22.10
2019-02-16T14:23:03.248Z,21.50
2019-02-16T14:25:45.942Z,22.37
2019-02-16T14:28:14.535Z,23.13
2019-02-16T14:30:43.081Z,21.80
2019-02-16T14:33:11.460Z,23.10
2019-02-16T14:35:40.275Z,23.47
2019-02-16T14:38:13.700Z,23.80
2019-02-16T14:40:42.336Z,25.00
2019-02-16T14:43:11.174Z,23.00
2019-02-16T14:45:40.779Z,24.23
2019-02-16T14:48:09.422Z,25.60
2019-02-16T14:50:40.127Z,24.60
2019-02-16T14:53:08.810Z,25.87
2019-02-16T14:55:39.560Z,24.00
2019-02-16T14:58:08.838Z,25.07
2019-02-16T15:00:37.374Z,26.17
2019-02-16T15:03:05.840Z,25.70
2019-02-16T15:05:34.440Z,25.87
2019-02-16T15:08:03.065Z,28.27
2019-02-16T15:10:31.668Z,26.07
2019-02-16T15:13:02.139Z,26.63
2019-02-16T15:15:30.825Z,26.40
2019-02-16T15:17:59.446Z,24.93
2019-02-16T15:20:27.877Z,27.13
2019-02-16T15:22:56.481Z,26.97
2019-02-16T15:25:25.051Z,25.13
2019-02-16T15:27:53.634Z,26.47
2019-02-16T15:30:22.230Z,25.63
2019-02-16T15:32:50.824Z,26.50
2019-02-16T15:35:22.824Z,26.20
2019-02-16T15:37:51.414Z,25.97
2019-02-16T15:40:20.007Z,26.70
2019-02-16T15:42:48.631Z,27.00
2019-02-16T15:45:17.119Z,26.23
2019-02-16T15:47:45.694Z,25.70
2019-02-16T15:50:14.311Z,25.83
2019-02-16T15:52:42.995Z,26.20
2019-02-16T15:55:11.582Z,28.97
2019-02-16T15:57:40.140Z,29.00
2019-02-16T16:00:11.748Z,30.33
2019-02-16T16:02:40.408Z,28.53
2019-02-16T16:05:09.197Z,30.57
2019-02-16T16:07:38.743Z,30.57
2019-02-16T16:10:26.662Z,30.73
2019-02-16T16:13:14.462Z,31.97
2019-02-16T16:16:15.113Z,30.07
2019-02-16T16:19:19.059Z,30.47
2019-02-16T16:22:06.463Z,29.80
2019-02-16T16:24:53.892Z,29.60
2019-02-16T16:27:48.609Z,29.37
2019-02-16T16:30:42.262Z,31.70
2019-02-16T16:33:32.942Z,30.80
2019-02-16T16:36:25.189Z,29.47
2019-02-16T16:39:25.340Z,29.47
2019-02-16T16:42:11.438Z,31.13
2019-02-16T16:45:11.409Z,31.17
2019-02-16T16:48:08.203Z,30.43
2019-02-16T16:50:47.949Z,31.13
2019-02-16T16:53:31.025Z,30.47
2019-02-16T16:56:05.214Z,31.03
2019-02-16T16:58:42.542Z,31.10
2019-02-16T17:01:31.738Z,32.30
2019-02-16T17:04:28.957Z,31.43
2019-02-16T17:07:22.448Z,31.47
2019-02-16T17:10:22.516Z,30.10
2019-02-16T17:13:13.260Z,30.90
2019-02-16T17:16:13.521Z,31.97
2019-02-16T17:19:25.470Z,32.10
2019-02-16T17:22:08.630Z,32.13
2019-02-16T17:24:52.497Z,30.97
2019-02-16T17:27:30.430Z,31.37
2019-02-16T18:14:08.257Z,32.30
2019-02-16T18:45:03.910Z,34.10
2019-02-16T18:48:04.539Z,34.57
2019-02-16T18:51:09.723Z,34.57
2019-02-16T19:16:49.477Z,35.60
2019-02-16T19:20:22.175Z,33.97
2019-02-16T19:26:28.710Z,36.17
2019-02-16T19:29:28.870Z,36.17
2019-02-16T19:36:13.213Z,36.00
2019-02-16T19:39:08.722Z,36.37
2019-02-16T19:42:00.034Z,34.60
2019-02-16T19:44:56.905Z,34.87
2019-02-16T19:47:41.852Z,35.53
2019-02-16T19:50:53.043Z,35.50
2019-02-16T19:53:55.636Z,36.53
2019-02-16T19:57:13.418Z,35.17
2019-02-16T20:03:57.541Z,35.33
2019-02-16T20:06:59.175Z,36.00
2019-02-16T20:10:15.825Z,36.17
2019-02-16T20:13:03.432Z,34.60
2019-02-16T20:15:52.854Z,35.13
2019-02-16T20:19:03.638Z,36.20
2019-02-16T20:21:58.319Z,34.93
2019-02-16T20:28:26.677Z,35.97
2019-02-16T20:35:15.310Z,36.77
2019-02-16T21:03:54.864Z,35.90
2019-02-16T21:06:53.380Z,35.63
